Terminal Aerodrome Forecast
Issued by NWS Memphis, TN

Home | Current Version | Previous Version | Text Only | Print | Product List | Glossary On
Versions: 1 2 3 4 5 6 7 8 9 10 11 12 13 14 15 16
000
FTUS44 KMEG 260524
TAFJBR
TAF
KJBR 260524Z 2606/2706 00000KT P6SM FEW120 BKN250
     FM261400 15008KT P6SM SCT050 BKN120
     FM261600 18012G18KT P6SM VCSH BKN050 OVC090
     FM262100 26010KT P6SM SCT025 BKN040
      TEMPO 2702/2706 BKN025=

USA.gov is the U.S. government's official web portal to all federal, state and local government web resources and services.